Terminal Aerodrome Forecast
Issued by NWS Raleigh/Durham, NC

Home | Current Version | Previous Version | Text Only | Print | Product List | Glossary On
Versions: 1 2 3 4 5 6 7 8 9 10 11 12 13 14 15 16 17 18 19 20 21
000
FTUS42 KRAH 081123
TAFFAY
TAF
KFAY 081123Z 0812/0912 VRB03KT P6SM SCT007 OVC015
      TEMPO 0812/0814 5SM BR OVC007
     FM081400 27007KT P6SM OVC025
     FM081700 31008G16KT P6SM SCT040 BKN150
     FM090000 32006KT P6SM BKN250=

USA.gov is the U.S. government's official web portal to all federal, state and local government web resources and services.